Time,TemperatureF,DewpointF,PressureIn,WindDirection,WindDirectionDegrees,WindSpeedMPH,WindSpeedGustMPH,Humidity,HourlyPrecipIn,Conditions,Clouds,dailyrainin,SoftwareType,DateUTC
2013-05-24 00:02:00,42.0,35.0,-100.00,North,5,7.0,10.0,75,-99.99,,,-99.99,,2013-05-24 05:02:00,
2013-05-24 00:12:00,42.0,35.0,-100.00,North,5,7.0,10.0,75,-99.99,,,-99.99,,2013-05-24 05:12:00,
2013-05-24 00:22:00,42.0,35.0,-100.00,North,5,7.0,10.0,75,-99.99,,,-99.99,,2013-05-24 05:22:00,
2013-05-24 00:32:00,42.0,35.0,-100.00,North,5,7.0,10.0,75,-99.99,,,-99.99,,2013-05-24 05:32:00,
2013-05-24 01:02:00,40.0,35.0,-100.00,NNW,345,3.0,6.0,83,-99.99,,,-99.99,,2013-05-24 06:02:00,
2013-05-24 01:12:00,40.0,35.0,-100.00,NNW,345,3.0,6.0,83,-99.99,,,-99.99,,2013-05-24 06:12:00,
2013-05-24 01:21:00,40.0,35.0,-100.00,NNW,345,3.0,6.0,83,-99.99,,,-99.99,,2013-05-24 06:21:00,
2013-05-24 01:32:00,40.0,35.0,-100.00,NNW,345,3.0,6.0,83,-99.99,,,-99.99,,2013-05-24 06:32:00,
2013-05-24 02:01:00,37.0,34.0,-100.00,WNW,295,0.0,3.0,88,-99.99,,,-99.99,,2013-05-24 07:01:00,
2013-05-24 02:11:00,37.0,34.0,-100.00,WNW,295,0.0,3.0,88,-99.99,,,-99.99,,2013-05-24 07:11:00,
2013-05-24 02:22:00,37.0,34.0,-100.00,WNW,295,0.0,3.0,88,-99.99,,,-99.99,,2013-05-24 07:22:00,
2013-05-24 02:32:00,37.0,34.0,-100.00,WNW,295,0.0,3.0,88,-99.99,,,-99.99,,2013-05-24 07:32:00,
2013-05-24 03:02:00,36.0,34.0,-100.00,NE,35,0.0,2.0,93,-99.99,,,-99.99,,2013-05-24 08:02:00,
2013-05-24 03:11:00,36.0,34.0,-100.00,NE,35,0.0,2.0,93,-99.99,,,-99.99,,2013-05-24 08:11:00,
2013-05-24 03:22:00,36.0,34.0,-100.00,NE,35,0.0,2.0,93,-99.99,,,-99.99,,2013-05-24 08:22:00,
2013-05-24 03:32:00,36.0,34.0,-100.00,NE,35,0.0,2.0,93,-99.99,,,-99.99,,2013-05-24 08:32:00,
2013-05-24 04:02:00,35.0,33.0,-100.00,North,10,0.0,1.0,95,-99.99,,,-99.99,,2013-05-24 09:02:00,
2013-05-24 04:11:00,35.0,33.0,-100.00,North,10,0.0,1.0,95,-99.99,,,-99.99,,2013-05-24 09:11:00,
2013-05-24 04:21:00,35.0,33.0,-100.00,North,10,0.0,1.0,95,-99.99,,,-99.99,,2013-05-24 09:21:00,
2013-05-24 04:32:00,35.0,33.0,-100.00,North,10,0.0,1.0,95,-99.99,,,-99.99,,2013-05-24 09:32:00,
2013-05-24 05:03:00,34.0,33.0,-100.00,NE,35,1.0,2.0,96,-99.99,,,-99.99,,2013-05-24 10:03:00,
2013-05-24 05:12:00,34.0,33.0,-100.00,NE,35,1.0,2.0,96,-99.99,,,-99.99,,2013-05-24 10:12:00,
2013-05-24 05:22:00,34.0,33.0,-100.00,NE,35,1.0,2.0,96,-99.99,,,-99.99,,2013-05-24 10:22:00,
2013-05-24 05:32:00,34.0,33.0,-100.00,NE,35,1.0,2.0,96,-99.99,,,-99.99,,2013-05-24 10:32:00,
2013-05-24 06:02:00,33.0,33.0,-100.00,West,280,0.0,1.0,97,-99.99,,,-99.99,,2013-05-24 11:02:00,
2013-05-24 06:12:00,33.0,33.0,-100.00,West,280,0.0,1.0,97,-99.99,,,-99.99,,2013-05-24 11:12:00,
2013-05-24 06:22:00,33.0,33.0,-100.00,West,280,0.0,1.0,97,-99.99,,,-99.99,,2013-05-24 11:22:00,
2013-05-24 06:32:00,33.0,33.0,-100.00,West,280,0.0,1.0,97,-99.99,,,-99.99,,2013-05-24 11:32:00,
2013-05-24 06:52:00,38.0,37.0,-100.00,WNW,295,0.0,1.0,97,-99.99,,,-99.99,,2013-05-24 11:52:00,
2013-05-24 07:02:00,38.0,37.0,-100.00,WNW,295,0.0,1.0,97,-99.99,,,-99.99,,2013-05-24 12:02:00,
2013-05-24 07:11:00,38.0,37.0,-100.00,WNW,295,0.0,1.0,97,-99.99,,,-99.99,,2013-05-24 12:11:00,
2013-05-24 07:21:00,38.0,37.0,-100.00,WNW,295,0.0,1.0,97,-99.99,,,-99.99,,2013-05-24 12:21:00,
2013-05-24 07:32:00,38.0,37.0,-100.00,WNW,295,0.0,1.0,97,-99.99,,,-99.99,,2013-05-24 12:32:00,
2013-05-24 08:02:00,46.0,45.0,-100.00,NE,40,2.0,4.0,95,-99.99,,,-99.99,,2013-05-24 13:02:00,
2013-05-24 08:11:00,46.0,45.0,-100.00,NE,40,2.0,4.0,95,-99.99,,,-99.99,,2013-05-24 13:11:00,
2013-05-24 08:21:00,46.0,45.0,-100.00,NE,40,2.0,4.0,95,-99.99,,,-99.99,,2013-05-24 13:21:00,
2013-05-24 08:32:00,46.0,45.0,-100.00,NE,40,2.0,4.0,95,-99.99,,,-99.99,,2013-05-24 13:32:00,
2013-05-24 08:52:00,48.0,30.0,-100.00,SSE,150,4.0,7.0,50,-99.99,,,-99.99,,2013-05-24 13:52:00,
2013-05-24 09:01:00,48.0,30.0,-100.00,SSE,150,4.0,7.0,50,-99.99,,,-99.99,,2013-05-24 14:01:00,
2013-05-24 09:11:00,48.0,30.0,-100.00,SSE,150,4.0,7.0,50,-99.99,,,-99.99,,2013-05-24 14:11:00,
2013-05-24 09:21:00,48.0,30.0,-100.00,SSE,150,4.0,7.0,50,-99.99,,,-99.99,,2013-05-24 14:21:00,
2013-05-24 09:32:00,48.0,30.0,-100.00,SSE,150,4.0,7.0,50,-99.99,,,-99.99,,2013-05-24 14:32:00,
2013-05-24 10:02:00,52.0,29.0,-100.00,ENE,65,2.0,9.0,41,-99.99,,,-99.99,,2013-05-24 15:02:00,
2013-05-24 10:11:00,52.0,29.0,-100.00,ENE,65,2.0,9.0,41,-99.99,,,-99.99,,2013-05-24 15:11:00,
2013-05-24 10:21:00,52.0,29.0,-100.00,ENE,65,2.0,9.0,41,-99.99,,,-99.99,,2013-05-24 15:21:00,
2013-05-24 10:32:00,52.0,29.0,-100.00,ENE,65,2.0,9.0,41,-99.99,,,-99.99,,2013-05-24 15:32:00,
2013-05-24 11:03:00,54.0,28.0,-100.00,SSW,205,4.0,8.0,37,-99.99,,,-99.99,,2013-05-24 16:03:00,
2013-05-24 11:12:00,54.0,28.0,-100.00,SSW,205,4.0,8.0,37,-99.99,,,-99.99,,2013-05-24 16:12:00,
2013-05-24 11:22:00,54.0,28.0,-100.00,SSW,205,4.0,8.0,37,-99.99,,,-99.99,,2013-05-24 16:22:00,
2013-05-24 11:32:00,54.0,28.0,-100.00,SSW,205,4.0,8.0,37,-99.99,,,-99.99,,2013-05-24 16:32:00,
2013-05-24 12:02:00,57.0,27.0,-100.00,ENE,70,4.0,9.0,32,-99.99,,,-99.99,,2013-05-24 17:02:00,
2013-05-24 12:12:00,57.0,27.0,-100.00,ENE,70,4.0,9.0,32,-99.99,,,-99.99,,2013-05-24 17:12:00,
2013-05-24 12:22:00,57.0,27.0,-100.00,ENE,70,4.0,9.0,32,-99.99,,,-99.99,,2013-05-24 17:22:00,
2013-05-24 12:32:00,57.0,27.0,-100.00,ENE,70,4.0,9.0,32,-99.99,,,-99.99,,2013-05-24 17:32:00,
2013-05-24 13:01:00,59.0,28.0,-100.00,SE,145,2.0,12.0,30,-99.99,,,-99.99,,2013-05-24 18:01:00,
2013-05-24 13:12:00,59.0,28.0,-100.00,SE,145,2.0,12.0,30,-99.99,,,-99.99,,2013-05-24 18:12:00,
2013-05-24 13:21:00,59.0,28.0,-100.00,SE,145,2.0,12.0,30,-99.99,,,-99.99,,2013-05-24 18:21:00,
2013-05-24 13:32:00,59.0,28.0,-100.00,SE,145,2.0,12.0,30,-99.99,,,-99.99,,2013-05-24 18:32:00,
2013-05-24 14:01:00,62.0,28.0,-100.00,East,95,4.0,9.0,28,-99.99,,,-99.99,,2013-05-24 19:01:00,
2013-05-24 14:11:00,62.0,28.0,-100.00,East,95,4.0,9.0,28,-99.99,,,-99.99,,2013-05-24 19:11:00,
2013-05-24 14:21:00,62.0,28.0,-100.00,East,95,4.0,9.0,28,-99.99,,,-99.99,,2013-05-24 19:21:00,
2013-05-24 14:32:00,62.0,28.0,-100.00,East,95,4.0,9.0,28,-99.99,,,-99.99,,2013-05-24 19:32:00,
2013-05-24 15:02:00,64.0,29.0,-100.00,WSW,240,2.0,7.0,27,-99.99,,,-99.99,,2013-05-24 20:02:00,
2013-05-24 15:11:00,64.0,29.0,-100.00,WSW,240,2.0,7.0,27,-99.99,,,-99.99,,2013-05-24 20:11:00,
2013-05-24 15:21:00,64.0,29.0,-100.00,WSW,240,2.0,7.0,27,-99.99,,,-99.99,,2013-05-24 20:21:00,
2013-05-24 15:32:00,64.0,29.0,-100.00,WSW,240,2.0,7.0,27,-99.99,,,-99.99,,2013-05-24 20:32:00,
2013-05-24 15:52:00,65.0,28.0,-100.00,SE,135,2.0,10.0,24,-99.99,,,-99.99,,2013-05-24 20:52:00,
2013-05-24 16:01:00,65.0,28.0,-100.00,SE,135,2.0,10.0,24,-99.99,,,-99.99,,2013-05-24 21:01:00,
2013-05-24 16:11:00,65.0,28.0,-100.00,SE,135,2.0,10.0,24,-99.99,,,-99.99,,2013-05-24 21:11:00,
2013-05-24 16:21:00,65.0,28.0,-100.00,SE,135,2.0,10.0,24,-99.99,,,-99.99,,2013-05-24 21:21:00,
2013-05-24 16:32:00,65.0,28.0,-100.00,SE,135,2.0,10.0,24,-99.99,,,-99.99,,2013-05-24 21:32:00,
2013-05-24 17:02:00,66.0,27.0,-100.00,SSE,165,5.0,12.0,23,-99.99,,,-99.99,,2013-05-24 22:02:00,
2013-05-24 17:12:00,66.0,27.0,-100.00,SSE,165,5.0,12.0,23,-99.99,,,-99.99,,2013-05-24 22:12:00,
2013-05-24 17:22:00,66.0,27.0,-100.00,SSE,165,5.0,12.0,23,-99.99,,,-99.99,,2013-05-24 22:22:00,
2013-05-24 17:33:00,66.0,27.0,-100.00,SSE,165,5.0,12.0,23,-99.99,,,-99.99,,2013-05-24 22:33:00,
2013-05-24 18:02:00,64.0,26.0,-100.00,ESE,120,6.0,11.0,23,-99.99,,,-99.99,,2013-05-24 23:02:00,
2013-05-24 18:11:00,64.0,26.0,-100.00,ESE,120,6.0,11.0,23,-99.99,,,-99.99,,2013-05-24 23:11:00,
2013-05-24 18:22:00,64.0,26.0,-100.00,ESE,120,6.0,11.0,23,-99.99,,,-99.99,,2013-05-24 23:22:00,
2013-05-24 18:32:00,64.0,26.0,-100.00,ESE,120,6.0,11.0,23,-99.99,,,-99.99,,2013-05-24 23:32:00,
2013-05-24 19:01:00,63.0,27.0,-100.00,SSE,160,4.0,7.0,25,-99.99,,,-99.99,,2013-05-25 00:01:00,
2013-05-24 19:11:00,63.0,27.0,-100.00,SSE,160,4.0,7.0,25,-99.99,,,-99.99,,2013-05-25 00:11:00,
2013-05-24 19:21:00,63.0,27.0,-100.00,SSE,160,4.0,7.0,25,-99.99,,,-99.99,,2013-05-25 00:21:00,
2013-05-24 19:32:00,63.0,27.0,-100.00,SSE,160,4.0,7.0,25,-99.99,,,-99.99,,2013-05-25 00:32:00,
2013-05-24 20:01:00,62.0,33.0,-100.00,SSW,205,3.0,4.0,34,-99.99,,,-99.99,,2013-05-25 01:01:00,
2013-05-24 20:11:00,62.0,33.0,-100.00,SSW,205,3.0,4.0,34,-99.99,,,-99.99,,2013-05-25 01:11:00,
2013-05-24 20:22:00,62.0,33.0,-100.00,SSW,205,3.0,4.0,34,-99.99,,,-99.99,,2013-05-25 01:22:00,
2013-05-24 20:32:00,62.0,33.0,-100.00,SSW,205,3.0,4.0,34,-99.99,,,-99.99,,2013-05-25 01:32:00,
2013-05-24 21:02:00,55.0,35.0,-100.00,ENE,75,0.0,1.0,48,-99.99,,,-99.99,,2013-05-25 02:02:00,
2013-05-24 21:12:00,55.0,35.0,-100.00,ENE,75,0.0,1.0,48,-99.99,,,-99.99,,2013-05-25 02:12:00,
2013-05-24 21:21:00,55.0,35.0,-100.00,ENE,75,0.0,1.0,48,-99.99,,,-99.99,,2013-05-25 02:21:00,
2013-05-24 21:31:00,55.0,35.0,-100.00,ENE,75,0.0,1.0,48,-99.99,,,-99.99,,2013-05-25 02:31:00,
2013-05-24 22:02:00,51.0,43.0,-100.00,ENE,60,1.0,2.0,74,-99.99,,,-99.99,,2013-05-25 03:02:00,
2013-05-24 22:11:00,51.0,43.0,-100.00,ENE,60,1.0,2.0,74,-99.99,,,-99.99,,2013-05-25 03:11:00,
2013-05-24 22:21:00,51.0,43.0,-100.00,ENE,60,1.0,2.0,74,-99.99,,,-99.99,,2013-05-25 03:21:00,
2013-05-24 22:32:00,51.0,43.0,-100.00,ENE,60,1.0,2.0,74,-99.99,,,-99.99,,2013-05-25 03:32:00,
2013-05-24 23:02:00,49.0,45.0,-100.00,East,80,1.0,2.0,84,-99.99,,,-99.99,,2013-05-25 04:02:00,
2013-05-24 23:13:00,49.0,45.0,-100.00,East,80,1.0,2.0,84,-99.99,,,-99.99,,2013-05-25 04:13:00,
2013-05-24 23:23:00,49.0,45.0,-100.00,East,80,1.0,2.0,84,-99.99,,,-99.99,,2013-05-25 04:23:00,
2013-05-24 23:33:00,49.0,45.0,-100.00,East,80,1.0,2.0,84,-99.99,,,-99.99,,2013-05-25 04:33:00,